Baton Rouge — 2CZZ7 — position and weather

sailwx.info

Track history (hours):
 
Tides and Currents Weather Stations Pressure Air Temp Water Temp Dewpoint Dewpoint Depression Visibility Wind Speed Wind Dir Waves Ship Positions

Baton Rouge

Last reported at 2014-Jul-26 15:09 UTC. Time now 2014-Aug-01 22:37 UTC.
Position N 39°44' E 004°37'.

Length 62 m; draft 3.7 m.

Type: Pleasure craft. MMSI: 235077185.

Date/timePositionNaut miles runAvg speedWind from/ knotsBaromVisibWave heightAir tempDewpointWater temp
2014-Jul-26 15:09N 39°44' E 004°37'4913.2
2014-Jul-26 11:27N 39°22' E 003°40'1213.0
2014-Jul-26 10:33N 39°17' E 003°27'1312.9
2014-Jul-26 09:33N 39°11' E 003°12'1212.4
2014-Jul-26 08:33N 39°06' E 002°57'1211.9
2014-Jul-26 07:33N 39°16' E 002°47'1313.1
2014-Jul-26 06:33N 39°27' E 002°40'6 5.8
2014-Jul-26 05:31N 39°33' E 002°36'0 0.0
2014-Jul-26 04:31N 39°33' E 002°36'0 0.0
2014-Jul-26 03:31N 39°33' E 002°36'0 0.0
2014-Jul-26 02:31N 39°33' E 002°36'0 0.0
2014-Jul-26 01:31N 39°33' E 002°36'0 0.0
2014-Jul-26 00:31N 39°33' E 002°36'0 0.0
2014-Jul-25 23:31N 39°33' E 002°36'0 0.0
2014-Jul-25 22:31N 39°33' E 002°36'0 0.0
2014-Jul-25 21:31N 39°33' E 002°36'0 0.0
2014-Jul-25 20:33N 39°33' E 002°36'7 7.2
2014-Jul-25 19:33N 39°27' E 002°30'1312.7
2014-Jul-25 18:33N 39°35' E 002°18'1313.5
2014-Jul-25 17:33N 39°43' E 002°32'9 8.8
2014-Jul-25 16:33N 39°48' E 002°41'0 0.0
2014-Jul-25 15:29N 39°48' E 002°41'0 0.0
2014-Jul-25 14:32N 39°48' E 002°41'0 0.0
2014-Jul-25 13:29N 39°48' E 002°41'0 0.0
2014-Jul-25 12:32N 39°48' E 002°41'1 1.0
2014-Jul-25 11:33N 39°49' E 002°42'0 0.2
2014-Jul-25 10:31N 39°49' E 002°42'0 0.0
2014-Jul-25 09:31N 39°49' E 002°42'0 0.0
2014-Jul-25 08:31N 39°49' E 002°42'1 0.6
2014-Jul-25 07:33N 39°49' E 002°41'1312.4
2014-Jul-25 06:33N 39°42' E 002°28'1412.1
2014-Jul-25 05:25N 39°33' E 002°14'1012.1
2014-Jul-25 04:33N 39°25' E 002°05'1212.1
2014-Jul-25 03:33N 39°16' E 001°56'1212.2
2014-Jul-25 02:33N 39°06' E 001°46'1312.3
2014-Jul-25 01:33N 38°57' E 001°35'6 1.0
2014-Jul-24 19:27N 38°55' E 001°28'3 3.1
2014-Jul-24 18:33N 38°52' E 001°26'7 6.5
2014-Jul-24 17:29N 38°45' E 001°26'0 0.0
2014-Jul-24 14:17N 38°45' E 001°26'0 0.0
2014-Jul-24 13:32N 38°45' E 001°26'0 0.0
2014-Jul-24 12:29N 38°45' E 001°26'3 2.8
2014-Jul-24 11:33N 38°47' E 001°24'3 2.8
2014-Jul-24 10:33N 38°50' E 001°24'4 2.6
2014-Jul-24 09:06N 38°51' E 001°19'5 9.3
2014-Jul-24 08:32N 38°51' E 001°26'2 0.1
2014-Jul-23 17:33N 38°52' E 001°26'7 7.3
2014-Jul-23 16:33N 38°45' E 001°26'0 0.0
2014-Jul-23 14:30N 38°45' E 001°26'0 0.0
2014-Jul-23 13:33N 38°45' E 001°26'0 0.0
2014-Jul-23 12:09N 38°45' E 001°26'0 0.0
2014-Jul-23 10:33N 38°45' E 001°26'0 0.0
2014-Jul-23 09:05N 38°45' E 001°26'4 7.5
2014-Jul-23 08:33N 38°49' E 001°26'1313.0
2014-Jul-23 07:33N 38°58' E 001°37'1312.9
2014-Jul-23 06:33N 39°10' E 001°45'1312.9
2014-Jul-23 05:33N 39°22' E 001°52'1312.8
2014-Jul-23 04:33N 39°34' E 001°57'1312.8
2014-Jul-23 03:33N 39°45' E 002°05'1312.9
2014-Jul-23 02:33N 39°57' E 002°11'1313.2
2014-Jul-23 01:33N 40°09' E 002°18'1413.6
2014-Jul-23 00:33N 40°22' E 002°25'1413.5
2014-Jul-22 23:33N 40°34' E 002°32'1313.4
2014-Jul-22 22:33N 40°47' E 002°38'1313.4
2014-Jul-22 21:33N 40°59' E 002°45'2813.7
2014-Jul-22 19:33N 41°25' E 002°59'1313.0
2014-Jul-22 18:33N 41°36' E 003°06'1312.5
2014-Jul-22 17:30N 41°49' E 003°13'42 8.0
2014-Jul-22 12:17N 42°30' E 003°08'0 0.0
2014-Jul-22 11:22N 42°30' E 003°08'0 0.3
2014-Jul-22 10:33N 42°30' E 003°08'1 1.4
2014-Jul-22 09:33N 42°31' E 003°06'0 0.0
2014-Jul-21 19:27N 42°31' E 003°06'0 0.0
2014-Jul-21 17:08N 42°31' E 003°06'0 0.0
2014-Jul-21 06:18N 42°31' E 003°06'0 0.0
2014-Jul-20 13:30N 42°31' E 003°06'0 0.0
2014-Jul-20 12:22N 42°31' E 003°06'0 0.0
2014-Jul-20 03:06N 42°31' E 003°06'0 0.0
2014-Jul-20 00:12N 42°31' E 003°06'0 0.0
2014-Jul-19 18:05N 42°31' E 003°06'0 0.0
2014-Jul-19 07:15N 42°31' E 003°07'8 9.3
2014-Jul-19 06:24N 42°34' E 003°17'1012.2
2014-Jul-19 05:33N 42°35' E 003°31'1211.9
2014-Jul-19 04:33N 42°37' E 003°46'1111.4
2014-Jul-19 03:33N 42°39' E 004°02'1211.8
2014-Jul-19 02:33N 42°41' E 004°17'1312.5
2014-Jul-19 01:33N 42°43' E 004°34'1212.3
2014-Jul-19 00:33N 42°45' E 004°51'1211.9
2014-Jul-18 23:33N 42°47' E 005°07'1212.0
2014-Jul-18 22:33N 42°50' E 005°23'1212.2
2014-Jul-18 21:33N 42°52' E 005°39'1312.6
2014-Jul-18 20:33N 42°54' E 005°56'1312.7
2014-Jul-18 19:33N 42°56' E 006°13'1312.6
2014-Jul-18 18:33N 42°59' E 006°30'1312.6
2014-Jul-18 17:33N 43°09' E 006°42'1312.5
2014-Jul-18 16:33N 43°19' E 006°52'1212.5
2014-Jul-18 15:34N 43°28' E 007°03'5 5.1
2014-Jul-18 14:29N 43°34' E 007°04'0 0.0
2014-Jul-18 13:29N 43°34' E 007°04'0 0.0
2014-Jul-18 12:29N 43°34' E 007°04'0 0.0
2014-Jul-18 11:32N 43°34' E 007°04'0 0.0
2014-Jul-18 10:29N 43°34' E 007°04'0 0.0
2014-Jul-18 09:32N 43°34' E 007°04'0 0.0
2014-Jul-18 08:29N 43°34' E 007°04'0 0.2
2014-Jul-18 07:33N 43°33' E 007°05'3 2.7
2014-Jul-18 06:33N 43°33' E 007°01'0 0.0
2014-Jul-18 05:26N 43°33' E 007°01'0 0.0
2014-Jul-18 04:32N 43°33' E 007°01'0 0.0
2014-Jul-18 03:32N 43°33' E 007°01'0 0.0
2014-Jul-18 02:32N 43°33' E 007°01'0 0.0
2014-Jul-18 01:32N 43°33' E 007°01'0 0.0
2014-Jul-18 00:32N 43°33' E 007°01'0 0.0
2014-Jul-17 23:32N 43°33' E 007°01'0 0.0
2014-Jul-17 22:26N 43°33' E 007°01'0 0.0
2014-Jul-17 21:29N 43°33' E 007°01'0 0.0
2014-Jul-17 20:32N 43°33' E 007°01'0 0.0
2014-Jul-17 19:32N 43°33' E 007°01'0 0.0
2014-Jul-17 18:17N 43°33' E 007°01'0 0.0
2014-Jul-17 17:29N 43°33' E 007°01'0 0.0
2014-Jul-17 16:32N 43°33' E 007°01'0 0.0
2014-Jul-17 15:32N 43°33' E 007°01'0 0.0
2014-Jul-17 14:29N 43°33' E 007°01'0 0.0
2014-Jul-17 13:29N 43°33' E 007°01'0 0.0
2014-Jul-17 12:32N 43°33' E 007°01'0 0.0
2014-Jul-17 11:32N 43°33' E 007°01'0 0.0
2014-Jul-17 10:32N 43°33' E 007°01'0 0.0
2014-Jul-17 09:32N 43°33' E 007°01'0 0.0
2014-Jul-17 08:32N 43°33' E 007°01'0 0.0
2014-Jul-17 07:05N 43°33' E 007°01'0 0.0
2014-Jul-17 06:32N 43°33' E 007°01'0 0.0
2014-Jul-17 05:32N 43°33' E 007°01'0 0.0
2014-Jul-17 04:32N 43°33' E 007°01'0 0.0
2014-Jul-17 03:32N 43°33' E 007°01'0 0.0
2014-Jul-17 02:23N 43°33' E 007°01'0 0.0
2014-Jul-17 01:32N 43°33' E 007°01'0 0.0
2014-Jul-17 00:32N 43°33' E 007°01'0 0.0
2014-Jul-16 23:32N 43°33' E 007°01'0 0.0
2014-Jul-16 22:29N 43°33' E 007°01'0 0.0
2014-Jul-16 21:29N 43°33' E 007°01'0 0.0
2014-Jul-16 20:26N 43°33' E 007°01'0 0.0
2014-Jul-16 19:32N 43°33' E 007°01'0 0.0
2014-Jul-16 18:29N 43°33' E 007°01'0 0.0
2014-Jul-16 17:29N 43°33' E 007°01'0 0.0
2014-Jul-16 16:29N 43°33' E 007°01'0 0.0
2014-Jul-16 15:32N 43°33' E 007°01'  
Track history (hours):
 
Tides and Currents Weather Stations Pressure Air Temp Water Temp Dewpoint Dewpoint Depression Visibility Wind Speed Wind Dir Waves Ship Positions

Baton Rouge

Last reported at 2014-Jul-26 15:09 UTC. Time now 2014-Aug-01 22:37 UTC.
Position N 39°44' E 004°37'.

Length 62 m; draft 3.7 m.

Type: Pleasure craft. MMSI: 235077185.

Date/timePositionNaut miles runAvg speedWind from/ knotsBaromVisibWave heightAir tempDewpointWater temp
2014-Jul-26 15:09N 39°44' E 004°37'4913.2
2014-Jul-26 11:27N 39°22' E 003°40'1213.0
2014-Jul-26 10:33N 39°17' E 003°27'1312.9
2014-Jul-26 09:33N 39°11' E 003°12'1212.4
2014-Jul-26 08:33N 39°06' E 002°57'1211.9
2014-Jul-26 07:33N 39°16' E 002°47'1313.1
2014-Jul-26 06:33N 39°27' E 002°40'6 5.8
2014-Jul-26 05:31N 39°33' E 002°36'0 0.0
2014-Jul-26 04:31N 39°33' E 002°36'0 0.0
2014-Jul-26 03:31N 39°33' E 002°36'0 0.0
2014-Jul-26 02:31N 39°33' E 002°36'0 0.0
2014-Jul-26 01:31N 39°33' E 002°36'0 0.0
2014-Jul-26 00:31N 39°33' E 002°36'0 0.0
2014-Jul-25 23:31N 39°33' E 002°36'0 0.0
2014-Jul-25 22:31N 39°33' E 002°36'0 0.0
2014-Jul-25 21:31N 39°33' E 002°36'0 0.0
2014-Jul-25 20:33N 39°33' E 002°36'7 7.2
2014-Jul-25 19:33N 39°27' E 002°30'1312.7
2014-Jul-25 18:33N 39°35' E 002°18'1313.5
2014-Jul-25 17:33N 39°43' E 002°32'9 8.8
2014-Jul-25 16:33N 39°48' E 002°41'0 0.0
2014-Jul-25 15:29N 39°48' E 002°41'0 0.0
2014-Jul-25 14:32N 39°48' E 002°41'0 0.0
2014-Jul-25 13:29N 39°48' E 002°41'0 0.0
2014-Jul-25 12:32N 39°48' E 002°41'1 1.0
2014-Jul-25 11:33N 39°49' E 002°42'0 0.2
2014-Jul-25 10:31N 39°49' E 002°42'0 0.0
2014-Jul-25 09:31N 39°49' E 002°42'0 0.0
2014-Jul-25 08:31N 39°49' E 002°42'1 0.6
2014-Jul-25 07:33N 39°49' E 002°41'1312.4
2014-Jul-25 06:33N 39°42' E 002°28'1412.1
2014-Jul-25 05:25N 39°33' E 002°14'1012.1
2014-Jul-25 04:33N 39°25' E 002°05'1212.1
2014-Jul-25 03:33N 39°16' E 001°56'1212.2
2014-Jul-25 02:33N 39°06' E 001°46'1312.3
2014-Jul-25 01:33N 38°57' E 001°35'6 1.0
2014-Jul-24 19:27N 38°55' E 001°28'3 3.1
2014-Jul-24 18:33N 38°52' E 001°26'7 6.5
2014-Jul-24 17:29N 38°45' E 001°26'0 0.0
2014-Jul-24 14:17N 38°45' E 001°26'0 0.0
2014-Jul-24 13:32N 38°45' E 001°26'0 0.0
2014-Jul-24 12:29N 38°45' E 001°26'3 2.8
2014-Jul-24 11:33N 38°47' E 001°24'3 2.8
2014-Jul-24 10:33N 38°50' E 001°24'4 2.6
2014-Jul-24 09:06N 38°51' E 001°19'5 9.3
2014-Jul-24 08:32N 38°51' E 001°26'2 0.1
2014-Jul-23 17:33N 38°52' E 001°26'7 7.3
2014-Jul-23 16:33N 38°45' E 001°26'0 0.0
2014-Jul-23 14:30N 38°45' E 001°26'0 0.0
2014-Jul-23 13:33N 38°45' E 001°26'0 0.0
2014-Jul-23 12:09N 38°45' E 001°26'0 0.0
2014-Jul-23 10:33N 38°45' E 001°26'0 0.0
2014-Jul-23 09:05N 38°45' E 001°26'4 7.5
2014-Jul-23 08:33N 38°49' E 001°26'1313.0
2014-Jul-23 07:33N 38°58' E 001°37'1312.9
2014-Jul-23 06:33N 39°10' E 001°45'1312.9
2014-Jul-23 05:33N 39°22' E 001°52'1312.8
2014-Jul-23 04:33N 39°34' E 001°57'1312.8
2014-Jul-23 03:33N 39°45' E 002°05'1312.9
2014-Jul-23 02:33N 39°57' E 002°11'1313.2
2014-Jul-23 01:33N 40°09' E 002°18'1413.6
2014-Jul-23 00:33N 40°22' E 002°25'1413.5
2014-Jul-22 23:33N 40°34' E 002°32'1313.4
2014-Jul-22 22:33N 40°47' E 002°38'1313.4
2014-Jul-22 21:33N 40°59' E 002°45'2813.7
2014-Jul-22 19:33N 41°25' E 002°59'1313.0
2014-Jul-22 18:33N 41°36' E 003°06'1312.5
2014-Jul-22 17:30N 41°49' E 003°13'42 8.0
2014-Jul-22 12:17N 42°30' E 003°08'0 0.0
2014-Jul-22 11:22N 42°30' E 003°08'0 0.3
2014-Jul-22 10:33N 42°30' E 003°08'1 1.4
2014-Jul-22 09:33N 42°31' E 003°06'0 0.0
2014-Jul-21 19:27N 42°31' E 003°06'0 0.0
2014-Jul-21 17:08N 42°31' E 003°06'0 0.0
2014-Jul-21 06:18N 42°31' E 003°06'0 0.0
2014-Jul-20 13:30N 42°31' E 003°06'0 0.0
2014-Jul-20 12:22N 42°31' E 003°06'0 0.0
2014-Jul-20 03:06N 42°31' E 003°06'0 0.0
2014-Jul-20 00:12N 42°31' E 003°06'0 0.0
2014-Jul-19 18:05N 42°31' E 003°06'0 0.0
2014-Jul-19 07:15N 42°31' E 003°07'8 9.3
2014-Jul-19 06:24N 42°34' E 003°17'1012.2
2014-Jul-19 05:33N 42°35' E 003°31'1211.9
2014-Jul-19 04:33N 42°37' E 003°46'1111.4
2014-Jul-19 03:33N 42°39' E 004°02'1211.8
2014-Jul-19 02:33N 42°41' E 004°17'1312.5
2014-Jul-19 01:33N 42°43' E 004°34'1212.3
2014-Jul-19 00:33N 42°45' E 004°51'1211.9
2014-Jul-18 23:33N 42°47' E 005°07'1212.0
2014-Jul-18 22:33N 42°50' E 005°23'1212.2
2014-Jul-18 21:33N 42°52' E 005°39'1312.6
2014-Jul-18 20:33N 42°54' E 005°56'1312.7
2014-Jul-18 19:33N 42°56' E 006°13'1312.6
2014-Jul-18 18:33N 42°59' E 006°30'1312.6
2014-Jul-18 17:33N 43°09' E 006°42'1312.5
2014-Jul-18 16:33N 43°19' E 006°52'1212.5
2014-Jul-18 15:34N 43°28' E 007°03'5 5.1
2014-Jul-18 14:29N 43°34' E 007°04'0 0.0
2014-Jul-18 13:29N 43°34' E 007°04'0 0.0
2014-Jul-18 12:29N 43°34' E 007°04'0 0.0
2014-Jul-18 11:32N 43°34' E 007°04'0 0.0
2014-Jul-18 10:29N 43°34' E 007°04'0 0.0
2014-Jul-18 09:32N 43°34' E 007°04'0 0.0
2014-Jul-18 08:29N 43°34' E 007°04'0 0.2
2014-Jul-18 07:33N 43°33' E 007°05'3 2.7
2014-Jul-18 06:33N 43°33' E 007°01'0 0.0
2014-Jul-18 05:26N 43°33' E 007°01'0 0.0
2014-Jul-18 04:32N 43°33' E 007°01'0 0.0
2014-Jul-18 03:32N 43°33' E 007°01'0 0.0
2014-Jul-18 02:32N 43°33' E 007°01'0 0.0
2014-Jul-18 01:32N 43°33' E 007°01'0 0.0
2014-Jul-18 00:32N 43°33' E 007°01'0 0.0
2014-Jul-17 23:32N 43°33' E 007°01'0 0.0
2014-Jul-17 22:26N 43°33' E 007°01'0 0.0
2014-Jul-17 21:29N 43°33' E 007°01'0 0.0
2014-Jul-17 20:32N 43°33' E 007°01'0 0.0
2014-Jul-17 19:32N 43°33' E 007°01'0 0.0
2014-Jul-17 18:17N 43°33' E 007°01'0 0.0
2014-Jul-17 17:29N 43°33' E 007°01'0 0.0
2014-Jul-17 16:32N 43°33' E 007°01'0 0.0
2014-Jul-17 15:32N 43°33' E 007°01'0 0.0
2014-Jul-17 14:29N 43°33' E 007°01'0 0.0
2014-Jul-17 13:29N 43°33' E 007°01'0 0.0
2014-Jul-17 12:32N 43°33' E 007°01'0 0.0
2014-Jul-17 11:32N 43°33' E 007°01'0 0.0
2014-Jul-17 10:32N 43°33' E 007°01'0 0.0
2014-Jul-17 09:32N 43°33' E 007°01'0 0.0
2014-Jul-17 08:32N 43°33' E 007°01'0 0.0
2014-Jul-17 07:05N 43°33' E 007°01'0 0.0
2014-Jul-17 06:32N 43°33' E 007°01'0 0.0
2014-Jul-17 05:32N 43°33' E 007°01'0 0.0
2014-Jul-17 04:32N 43°33' E 007°01'0 0.0
2014-Jul-17 03:32N 43°33' E 007°01'0 0.0
2014-Jul-17 02:23N 43°33' E 007°01'0 0.0
2014-Jul-17 01:32N 43°33' E 007°01'0 0.0
2014-Jul-17 00:32N 43°33' E 007°01'0 0.0
2014-Jul-16 23:32N 43°33' E 007°01'0 0.0
2014-Jul-16 22:29N 43°33' E 007°01'0 0.0
2014-Jul-16 21:29N 43°33' E 007°01'0 0.0
2014-Jul-16 20:26N 43°33' E 007°01'0 0.0
2014-Jul-16 19:32N 43°33' E 007°01'0 0.0
2014-Jul-16 18:29N 43°33' E 007°01'0 0.0
2014-Jul-16 17:29N 43°33' E 007°01'0 0.0
2014-Jul-16 16:29N 43°33' E 007°01'0 0.0
2014-Jul-16 15:32N 43°33' E 007°01'  

Dump ship's entire track history